TVF89LP LEPA-LFLL
Flight info
| Callsign | TVF89LP |
|---|---|
| Flight time | 1h 12m |
| Altitude | 36000 |
| Route | MEROS DCT LAPIT DCT CHELY DCT LUMAS DCT SOFFY DCT MRM DCT MTL |
| Aircraft | A320/M-SDE3FGHIRWY/LB1 |
Departure
| Time | 2026-05-06 13:06 |
|---|---|
| Airport | Palma de Mallorca Airport (LEPA) |
Arrival
| Time | 2026-05-06 14:18 |
|---|---|
| Airport | Lyon Saint-Exupéry Airport (LFLL) |
| Time | Latitude | Longitude | Altitude | Speed | Heading |
|---|---|---|---|---|---|
| 2026-05-06 12:12 | 39.54833 | 2.73569 | 35 ft | 0 kts | 59° |
| 2026-05-06 12:55 | 39.54832 | 2.73568 | 35 ft | 1 kts | 59° |
| 2026-05-06 12:55 | 39.54825 | 2.73552 | 35 ft | 3 kts | 66° |
| 2026-05-06 12:55 | 39.54818 | 2.73527 | 32 ft | 3 kts | 84° |
| 2026-05-06 12:55 | 39.54819 | 2.73503 | 32 ft | 3 kts | 115° |
| 2026-05-06 12:56 | 39.54828 | 2.73487 | 31 ft | 1 kts | 150° |
| 2026-05-06 12:56 | 39.54832 | 2.73484 | 31 ft | 0 kts | 150° |
| 2026-05-06 12:59 | 39.54822 | 2.73491 | 31 ft | 3 kts | 150° |
| 2026-05-06 12:59 | 39.54790 | 2.73515 | 35 ft | 7 kts | 150° |
| 2026-05-06 12:59 | 39.54731 | 2.73560 | 35 ft | 12 kts | 148° |
| 2026-05-06 12:59 | 39.54654 | 2.73624 | 35 ft | 13 kts | 131° |
| 2026-05-06 13:00 | 39.54688 | 2.73729 | 34 ft | 15 kts | 58° |
| 2026-05-06 13:00 | 39.54746 | 2.73859 | 34 ft | 18 kts | 59° |
| 2026-05-06 13:00 | 39.54819 | 2.73989 | 33 ft | 14 kts | 33° |
| 2026-05-06 13:00 | 39.54905 | 2.73958 | 33 ft | 12 kts | 349° |
| 2026-05-06 13:01 | 39.54969 | 2.74009 | 33 ft | 10 kts | 4° |
| 2026-05-06 13:01 | 39.55038 | 2.73960 | 33 ft | 12 kts | 329° |
| 2026-05-06 13:01 | 39.55119 | 2.73895 | 33 ft | 15 kts | 328° |
| 2026-05-06 13:01 | 39.55215 | 2.73820 | 33 ft | 17 kts | 328° |
| 2026-05-06 13:02 | 39.55326 | 2.73733 | 34 ft | 20 kts | 329° |
| 2026-05-06 13:02 | 39.55453 | 2.73636 | 34 ft | 23 kts | 329° |
| 2026-05-06 13:02 | 39.55592 | 2.73520 | 34 ft | 24 kts | 326° |
| 2026-05-06 13:02 | 39.55688 | 2.73542 | 34 ft | 11 kts | 90° |
| 2026-05-06 13:03 | 39.55719 | 2.73639 | 35 ft | 13 kts | 58° |
| 2026-05-06 13:03 | 39.55778 | 2.73762 | 36 ft | 19 kts | 58° |
| 2026-05-06 13:03 | 39.55856 | 2.73924 | 36 ft | 23 kts | 58° |
| 2026-05-06 13:03 | 39.55941 | 2.74106 | 37 ft | 24 kts | 59° |
| 2026-05-06 13:04 | 39.56034 | 2.74300 | 39 ft | 26 kts | 58° |
| 2026-05-06 13:04 | 39.56095 | 2.74426 | 39 ft | 18 kts | 54° |
| 2026-05-06 13:04 | 39.56201 | 2.74419 | 40 ft | 18 kts | 324° |
| 2026-05-06 13:04 | 39.56263 | 2.74344 | 40 ft | 10 kts | 295° |
| 2026-05-06 13:05 | 39.56254 | 2.74314 | 40 ft | 2 kts | 237° |
| 2026-05-06 13:05 | 39.56239 | 2.74280 | 40 ft | 11 kts | 239° |
| 2026-05-06 13:05 | 39.56073 | 2.73935 | 37 ft | 83 kts | 238° |
| 2026-05-06 13:05 | 39.55655 | 2.73053 | 34 ft | 143 kts | 238° |
| 2026-05-06 13:06 | 39.55073 | 2.71803 | 279 ft | 168 kts | 238° |
| 2026-05-06 13:06 | 39.54475 | 2.70495 | 996 ft | 170 kts | 237° |
| 2026-05-06 13:06 | 39.53850 | 2.69186 | 1712 ft | 173 kts | 236° |
| 2026-05-06 13:06 | 39.53183 | 2.67802 | 2112 ft | 190 kts | 237° |
| 2026-05-06 13:07 | 39.52484 | 2.66295 | 2564 ft | 205 kts | 238° |
| 2026-05-06 13:07 | 39.51709 | 2.64653 | 3096 ft | 221 kts | 238° |
| 2026-05-06 13:07 | 39.50892 | 2.62951 | 3903 ft | 224 kts | 238° |
| 2026-05-06 13:07 | 39.50051 | 2.61230 | 4776 ft | 227 kts | 234° |
| 2026-05-06 13:08 | 39.48896 | 2.59745 | 5364 ft | 245 kts | 212° |
| 2026-05-06 13:08 | 39.47290 | 2.58813 | 5972 ft | 263 kts | 202° |
| 2026-05-06 13:08 | 39.45545 | 2.57898 | 6632 ft | 277 kts | 203° |
| 2026-05-06 13:08 | 39.43767 | 2.56930 | 7609 ft | 276 kts | 202° |
| 2026-05-06 13:09 | 39.41888 | 2.56427 | 8530 ft | 283 kts | 180° |
| 2026-05-06 13:09 | 39.39981 | 2.57123 | 9388 ft | 293 kts | 149° |
| 2026-05-06 13:09 | 39.38506 | 2.58977 | 10206 ft | 302 kts | 128° |
| 2026-05-06 13:09 | 39.37255 | 2.61279 | 10517 ft | 324 kts | 129° |
| 2026-05-06 13:10 | 39.35702 | 2.63480 | 10949 ft | 337 kts | 139° |
| 2026-05-06 13:10 | 39.33987 | 2.65583 | 11645 ft | 342 kts | 139° |
| 2026-05-06 13:10 | 39.32255 | 2.67725 | 12389 ft | 347 kts | 139° |
| 2026-05-06 13:10 | 39.30503 | 2.69894 | 13122 ft | 351 kts | 139° |
| 2026-05-06 13:11 | 39.28731 | 2.72098 | 13835 ft | 357 kts | 138° |
| 2026-05-06 13:11 | 39.27307 | 2.74759 | 14458 ft | 369 kts | 115° |
| 2026-05-06 13:11 | 39.26813 | 2.78036 | 15093 ft | 378 kts | 93° |
| 2026-05-06 13:11 | 39.26776 | 2.81443 | 15744 ft | 382 kts | 92° |
| 2026-05-06 13:12 | 39.26775 | 2.84886 | 16388 ft | 386 kts | 90° |
| 2026-05-06 13:12 | 39.27058 | 2.88350 | 17010 ft | 392 kts | 79° |
| 2026-05-06 13:12 | 39.27851 | 2.91723 | 17653 ft | 397 kts | 68° |
| 2026-05-06 13:12 | 39.29109 | 2.94909 | 18280 ft | 401 kts | 59° |
| 2026-05-06 13:13 | 39.30510 | 2.98042 | 18828 ft | 405 kts | 60° |
| 2026-05-06 13:13 | 39.31920 | 3.01216 | 19389 ft | 410 kts | 60° |
| 2026-05-06 13:13 | 39.33347 | 3.04434 | 19942 ft | 415 kts | 60° |
| 2026-05-06 13:13 | 39.34771 | 3.07646 | 20469 ft | 420 kts | 60° |
| 2026-05-06 13:14 | 39.36230 | 3.10937 | 21012 ft | 425 kts | 60° |
| 2026-05-06 13:14 | 39.37704 | 3.14266 | 21550 ft | 429 kts | 60° |
| 2026-05-06 13:14 | 39.39194 | 3.17639 | 22086 ft | 433 kts | 60° |
| 2026-05-06 13:14 | 39.40693 | 3.21042 | 22621 ft | 438 kts | 60° |
| 2026-05-06 13:15 | 39.42207 | 3.24479 | 23154 ft | 442 kts | 60° |
| 2026-05-06 13:15 | 39.43741 | 3.27937 | 23657 ft | 446 kts | 60° |
| 2026-05-06 13:15 | 39.45328 | 3.31417 | 24108 ft | 450 kts | 59° |
| 2026-05-06 13:15 | 39.46941 | 3.34895 | 24556 ft | 453 kts | 59° |
| 2026-05-06 13:16 | 39.48578 | 3.38407 | 25002 ft | 456 kts | 59° |
| 2026-05-06 13:16 | 39.50222 | 3.41937 | 25439 ft | 459 kts | 59° |
| 2026-05-06 13:16 | 39.51873 | 3.45493 | 25873 ft | 462 kts | 59° |
| 2026-05-06 13:16 | 39.53528 | 3.49079 | 26319 ft | 465 kts | 59° |
| 2026-05-06 13:17 | 39.55186 | 3.52694 | 26744 ft | 468 kts | 59° |
| 2026-05-06 13:17 | 39.56848 | 3.56336 | 27142 ft | 471 kts | 59° |
| 2026-05-06 13:17 | 39.58517 | 3.60005 | 27551 ft | 474 kts | 59° |
| 2026-05-06 13:17 | 39.60196 | 3.63697 | 27952 ft | 477 kts | 59° |
| 2026-05-06 13:18 | 39.61885 | 3.67412 | 28347 ft | 480 kts | 59° |
| 2026-05-06 13:18 | 39.63581 | 3.71142 | 28737 ft | 483 kts | 59° |
| 2026-05-06 13:18 | 39.65270 | 3.74864 | 29119 ft | 485 kts | 59° |
| 2026-05-06 13:18 | 39.66984 | 3.78643 | 29503 ft | 488 kts | 59° |
| 2026-05-06 13:19 | 39.68713 | 3.82452 | 29895 ft | 491 kts | 59° |
| 2026-05-06 13:19 | 39.70453 | 3.86283 | 30244 ft | 494 kts | 59° |
| 2026-05-06 13:19 | 39.72201 | 3.90134 | 30573 ft | 496 kts | 59° |
| 2026-05-06 13:19 | 39.73956 | 3.94005 | 30916 ft | 498 kts | 59° |
| 2026-05-06 13:20 | 39.75717 | 3.97900 | 31223 ft | 501 kts | 59° |
| 2026-05-06 13:20 | 39.77483 | 4.01819 | 31534 ft | 504 kts | 59° |
| 2026-05-06 13:20 | 39.79257 | 4.05769 | 31863 ft | 505 kts | 59° |
| 2026-05-06 13:20 | 39.81023 | 4.09704 | 32319 ft | 504 kts | 59° |
| 2026-05-06 13:21 | 39.82950 | 4.13503 | 32759 ft | 503 kts | 50° |
| 2026-05-06 13:21 | 39.85304 | 4.16846 | 33199 ft | 500 kts | 40° |
| 2026-05-06 13:21 | 39.88017 | 4.19642 | 33621 ft | 495 kts | 30° |
| 2026-05-06 13:21 | 39.91010 | 4.21827 | 34050 ft | 489 kts | 20° |
| 2026-05-06 13:22 | 39.94140 | 4.23321 | 34420 ft | 483 kts | 10° |
| 2026-05-06 13:22 | 39.97406 | 4.24214 | 34790 ft | 479 kts | 4° |
| 2026-05-06 13:22 | 40.00684 | 4.24971 | 35117 ft | 479 kts | 4° |
| 2026-05-06 13:22 | 40.03970 | 4.25740 | 35445 ft | 479 kts | 4° |
| 2026-05-06 13:23 | 40.07251 | 4.26513 | 35786 ft | 479 kts | 4° |
| 2026-05-06 13:23 | 40.10535 | 4.27286 | 35934 ft | 479 kts | 4° |
| 2026-05-06 13:23 | 40.13800 | 4.28058 | 35966 ft | 475 kts | 4° |
| 2026-05-06 13:24 | 40.20291 | 4.29598 | 35966 ft | 474 kts | 4° |
| 2026-05-06 13:24 | 40.26781 | 4.31138 | 35964 ft | 474 kts | 4° |
| 2026-05-06 13:25 | 40.33263 | 4.32675 | 35964 ft | 474 kts | 4° |
| 2026-05-06 13:25 | 40.39759 | 4.34209 | 36001 ft | 474 kts | 4° |
| 2026-05-06 13:26 | 40.46250 | 4.35750 | 35980 ft | 475 kts | 4° |
| 2026-05-06 13:26 | 40.52757 | 4.37302 | 35976 ft | 475 kts | 4° |
| 2026-05-06 13:27 | 40.59278 | 4.38855 | 35976 ft | 476 kts | 4° |
| 2026-05-06 13:27 | 40.65790 | 4.40412 | 35977 ft | 476 kts | 4° |
| 2026-05-06 13:28 | 40.72277 | 4.41975 | 35975 ft | 477 kts | 4° |
| 2026-05-06 13:28 | 40.78802 | 4.43548 | 35979 ft | 477 kts | 4° |
| 2026-05-06 13:29 | 40.85325 | 4.45111 | 35992 ft | 476 kts | 4° |
| 2026-05-06 13:29 | 40.91850 | 4.46686 | 35986 ft | 477 kts | 4° |
| 2026-05-06 13:30 | 40.98380 | 4.48273 | 35986 ft | 477 kts | 4° |
| 2026-05-06 13:30 | 41.04914 | 4.49870 | 36019 ft | 478 kts | 4° |
| 2026-05-06 13:31 | 41.11460 | 4.51468 | 36005 ft | 479 kts | 4° |
| 2026-05-06 13:31 | 41.18016 | 4.53065 | 35995 ft | 479 kts | 4° |
| 2026-05-06 13:32 | 41.24568 | 4.54656 | 35990 ft | 479 kts | 4° |
| 2026-05-06 13:32 | 41.31129 | 4.56256 | 36001 ft | 479 kts | 4° |
| 2026-05-06 13:33 | 41.37647 | 4.57848 | 35979 ft | 479 kts | 4° |
| 2026-05-06 13:33 | 41.44209 | 4.59463 | 35979 ft | 480 kts | 4° |
| 2026-05-06 13:34 | 41.50775 | 4.61079 | 36003 ft | 480 kts | 5° |
| 2026-05-06 13:34 | 41.57351 | 4.62700 | 35991 ft | 481 kts | 5° |
| 2026-05-06 13:35 | 41.63939 | 4.64330 | 35986 ft | 481 kts | 5° |
| 2026-05-06 13:35 | 41.70523 | 4.65961 | 36009 ft | 481 kts | 5° |
| 2026-05-06 13:36 | 41.77053 | 4.68109 | 35994 ft | 486 kts | 11° |
| 2026-05-06 13:36 | 41.83551 | 4.70659 | 35986 ft | 487 kts | 11° |
| 2026-05-06 13:37 | 41.90053 | 4.73210 | 36002 ft | 487 kts | 11° |
| 2026-05-06 13:37 | 41.96564 | 4.75765 | 35989 ft | 487 kts | 11° |
| 2026-05-06 13:38 | 42.03070 | 4.78327 | 35978 ft | 487 kts | 11° |
| 2026-05-06 13:38 | 42.09536 | 4.80879 | 35976 ft | 488 kts | 11° |
| 2026-05-06 13:39 | 42.16052 | 4.83465 | 35981 ft | 488 kts | 12° |
| 2026-05-06 13:39 | 42.22565 | 4.86055 | 35977 ft | 488 kts | 11° |
| 2026-05-06 13:40 | 42.29081 | 4.88646 | 35975 ft | 488 kts | 12° |
| 2026-05-06 13:40 | 42.35599 | 4.91250 | 35986 ft | 488 kts | 12° |
| 2026-05-06 13:41 | 42.42121 | 4.93847 | 35981 ft | 488 kts | 11° |
| 2026-05-06 13:41 | 42.48645 | 4.96446 | 35954 ft | 489 kts | 11° |
| 2026-05-06 13:42 | 42.55173 | 4.99058 | 35983 ft | 489 kts | 12° |
| 2026-05-06 13:42 | 42.61695 | 5.01688 | 35976 ft | 489 kts | 12° |
| 2026-05-06 13:43 | 42.68193 | 5.04315 | 35974 ft | 489 kts | 12° |
| 2026-05-06 13:43 | 42.74755 | 5.06967 | 35971 ft | 489 kts | 12° |
| 2026-05-06 13:44 | 42.81240 | 5.09587 | 35967 ft | 489 kts | 12° |
| 2026-05-06 13:44 | 42.87774 | 5.12231 | 35968 ft | 489 kts | 12° |
| 2026-05-06 13:45 | 42.94297 | 5.14882 | 35985 ft | 489 kts | 12° |
| 2026-05-06 13:45 | 43.04065 | 5.18861 | 35968 ft | 488 kts | 12° |
| 2026-05-06 13:46 | 43.10575 | 5.21507 | 35969 ft | 488 kts | 12° |
| 2026-05-06 13:46 | 43.17082 | 5.24162 | 35975 ft | 488 kts | 12° |
| 2026-05-06 13:47 | 43.23582 | 5.26821 | 35970 ft | 488 kts | 12° |
| 2026-05-06 13:47 | 43.30050 | 5.29467 | 35967 ft | 488 kts | 12° |
| 2026-05-06 13:48 | 43.36681 | 5.31148 | 35980 ft | 476 kts | 355° |
| 2026-05-06 13:48 | 43.43083 | 5.30158 | 35975 ft | 460 kts | 337° |
| 2026-05-06 13:49 | 43.49119 | 5.27440 | 35964 ft | 456 kts | 334° |
| 2026-05-06 13:49 | 43.55139 | 5.24687 | 35971 ft | 456 kts | 335° |
| 2026-05-06 13:50 | 43.61173 | 5.21938 | 35940 ft | 456 kts | 335° |
| 2026-05-06 13:50 | 43.67195 | 5.19179 | 35937 ft | 456 kts | 334° |
| 2026-05-06 13:51 | 43.73238 | 5.16427 | 35943 ft | 457 kts | 335° |
| 2026-05-06 13:51 | 43.79282 | 5.13652 | 35930 ft | 457 kts | 335° |
| 2026-05-06 13:52 | 43.85317 | 5.10852 | 35930 ft | 457 kts | 335° |
| 2026-05-06 13:52 | 43.91310 | 5.08067 | 35932 ft | 457 kts | 335° |
| 2026-05-06 13:53 | 43.97338 | 5.05272 | 35940 ft | 457 kts | 335° |
| 2026-05-06 13:53 | 44.03375 | 5.02467 | 35936 ft | 457 kts | 335° |
| 2026-05-06 13:54 | 44.09401 | 4.99657 | 35937 ft | 457 kts | 335° |
| 2026-05-06 13:54 | 44.15438 | 4.96833 | 35929 ft | 458 kts | 335° |
| 2026-05-06 13:55 | 44.21494 | 4.94008 | 35935 ft | 460 kts | 335° |
| 2026-05-06 13:55 | 44.24525 | 4.92591 | 35688 ft | 460 kts | 335° |
| 2026-05-06 13:55 | 44.27596 | 4.91145 | 34566 ft | 471 kts | 335° |
| 2026-05-06 13:56 | 44.29654 | 4.90171 | 34091 ft | 471 kts | 335° |
| 2026-05-06 13:56 | 44.32753 | 4.88709 | 33439 ft | 469 kts | 335° |
| 2026-05-06 13:56 | 44.35830 | 4.87266 | 32824 ft | 465 kts | 335° |
| 2026-05-06 13:56 | 44.38885 | 4.85838 | 32258 ft | 461 kts | 334° |
| 2026-05-06 13:57 | 44.41913 | 4.84422 | 31713 ft | 456 kts | 334° |
| 2026-05-06 13:57 | 44.44911 | 4.83012 | 31193 ft | 452 kts | 334° |
| 2026-05-06 13:57 | 44.47881 | 4.81607 | 30665 ft | 448 kts | 333° |
| 2026-05-06 13:57 | 44.50819 | 4.80213 | 30154 ft | 444 kts | 333° |
| 2026-05-06 13:58 | 44.53769 | 4.78924 | 29606 ft | 445 kts | 340° |
| 2026-05-06 13:58 | 44.56838 | 4.78301 | 29065 ft | 449 kts | 351° |
| 2026-05-06 13:58 | 44.59969 | 4.78431 | 28527 ft | 450 kts | 359° |
| 2026-05-06 13:58 | 44.63080 | 4.78756 | 28003 ft | 444 kts | 359° |
| 2026-05-06 13:59 | 44.66138 | 4.79074 | 27502 ft | 439 kts | 359° |
| 2026-05-06 13:59 | 44.69176 | 4.79385 | 27000 ft | 434 kts | 359° |
| 2026-05-06 13:59 | 44.72127 | 4.79681 | 26534 ft | 429 kts | 359° |
| 2026-05-06 13:59 | 44.75096 | 4.79980 | 26073 ft | 425 kts | 359° |
| 2026-05-06 14:00 | 44.78025 | 4.80276 | 25636 ft | 420 kts | 359° |
| 2026-05-06 14:00 | 44.80923 | 4.80569 | 25202 ft | 415 kts | 359° |
| 2026-05-06 14:00 | 44.83797 | 4.80864 | 24788 ft | 411 kts | 360° |
| 2026-05-06 14:00 | 44.86632 | 4.81161 | 24386 ft | 407 kts | 0° |
| 2026-05-06 14:01 | 44.89446 | 4.81458 | 24005 ft | 403 kts | 0° |
| 2026-05-06 14:01 | 44.92231 | 4.81748 | 23656 ft | 399 kts | 1° |
| 2026-05-06 14:01 | 44.94982 | 4.82029 | 23257 ft | 395 kts | 1° |
| 2026-05-06 14:01 | 44.97714 | 4.82305 | 22790 ft | 392 kts | 1° |
| 2026-05-06 14:02 | 45.00419 | 4.82581 | 22335 ft | 388 kts | 1° |
| 2026-05-06 14:02 | 45.03106 | 4.82856 | 21845 ft | 385 kts | 1° |
| 2026-05-06 14:02 | 45.05768 | 4.83130 | 21376 ft | 382 kts | 1° |
| 2026-05-06 14:02 | 45.08412 | 4.83405 | 20906 ft | 379 kts | 1° |
| 2026-05-06 14:03 | 45.11035 | 4.83677 | 20463 ft | 376 kts | 2° |
| 2026-05-06 14:03 | 45.13599 | 4.83943 | 20006 ft | 373 kts | 2° |
| 2026-05-06 14:03 | 45.16208 | 4.84220 | 19523 ft | 370 kts | 3° |
| 2026-05-06 14:03 | 45.18703 | 4.84874 | 19066 ft | 370 kts | 13° |
| 2026-05-06 14:04 | 45.21163 | 4.85929 | 18601 ft | 368 kts | 14° |
| 2026-05-06 14:04 | 45.23598 | 4.86979 | 18120 ft | 365 kts | 14° |
| 2026-05-06 14:04 | 45.26025 | 4.88022 | 17596 ft | 362 kts | 14° |
| 2026-05-06 14:04 | 45.28432 | 4.89051 | 17105 ft | 360 kts | 14° |
| 2026-05-06 14:05 | 45.30836 | 4.89988 | 16600 ft | 357 kts | 12° |
| 2026-05-06 14:05 | 45.33231 | 4.90833 | 16104 ft | 354 kts | 11° |
| 2026-05-06 14:05 | 45.35619 | 4.91632 | 15625 ft | 351 kts | 11° |
| 2026-05-06 14:05 | 45.37992 | 4.92415 | 15135 ft | 349 kts | 11° |
| 2026-05-06 14:06 | 45.40346 | 4.93201 | 14666 ft | 344 kts | 11° |
| 2026-05-06 14:06 | 45.42647 | 4.93987 | 14022 ft | 335 kts | 12° |
| 2026-05-06 14:06 | 45.44862 | 4.94760 | 13627 ft | 320 kts | 12° |
| 2026-05-06 14:06 | 45.46968 | 4.95503 | 13237 ft | 305 kts | 12° |
| 2026-05-06 14:07 | 45.48985 | 4.96213 | 12884 ft | 292 kts | 12° |
| 2026-05-06 14:07 | 45.50932 | 4.96898 | 12539 ft | 288 kts | 12° |
| 2026-05-06 14:07 | 45.52890 | 4.97582 | 12194 ft | 291 kts | 12° |
| 2026-05-06 14:07 | 45.54875 | 4.98107 | 11844 ft | 288 kts | 2° |
| 2026-05-06 14:08 | 45.56868 | 4.98070 | 11494 ft | 286 kts | 352° |
| 2026-05-06 14:08 | 45.58847 | 4.97775 | 11150 ft | 286 kts | 352° |
| 2026-05-06 14:08 | 45.60822 | 4.97489 | 10803 ft | 285 kts | 352° |
| 2026-05-06 14:08 | 45.62797 | 4.97208 | 10460 ft | 285 kts | 352° |
| 2026-05-06 14:09 | 45.64749 | 4.96930 | 10119 ft | 286 kts | 352° |
| 2026-05-06 14:09 | 45.66731 | 4.96645 | 9764 ft | 287 kts | 352° |
| 2026-05-06 14:09 | 45.68711 | 4.96365 | 9387 ft | 286 kts | 352° |
| 2026-05-06 14:09 | 45.70688 | 4.96087 | 9017 ft | 285 kts | 352° |
| 2026-05-06 14:10 | 45.72655 | 4.95811 | 8665 ft | 284 kts | 352° |
| 2026-05-06 14:10 | 45.74613 | 4.95534 | 8317 ft | 283 kts | 352° |
| 2026-05-06 14:10 | 45.76575 | 4.95253 | 7966 ft | 283 kts | 353° |
| 2026-05-06 14:10 | 45.78540 | 4.94969 | 7618 ft | 285 kts | 352° |
| 2026-05-06 14:11 | 45.80509 | 4.94685 | 7310 ft | 283 kts | 353° |
| 2026-05-06 14:11 | 45.82468 | 4.94402 | 6963 ft | 282 kts | 353° |
| 2026-05-06 14:11 | 45.84420 | 4.94120 | 6609 ft | 281 kts | 354° |
| 2026-05-06 14:11 | 45.86378 | 4.94205 | 6259 ft | 282 kts | 8° |
| 2026-05-06 14:12 | 45.88252 | 4.94972 | 6057 ft | 277 kts | 19° |
| 2026-05-06 14:12 | 45.90022 | 4.95934 | 5939 ft | 267 kts | 25° |
| 2026-05-06 14:12 | 45.91481 | 4.97497 | 5815 ft | 260 kts | 49° |
| 2026-05-06 14:12 | 45.92383 | 4.99721 | 5484 ft | 260 kts | 73° |
| 2026-05-06 14:13 | 45.92623 | 5.02263 | 5192 ft | 253 kts | 87° |
| 2026-05-06 14:13 | 45.92581 | 5.04768 | 4710 ft | 248 kts | 108° |
| 2026-05-06 14:13 | 45.91667 | 5.06723 | 4334 ft | 232 kts | 149° |
| 2026-05-06 14:13 | 45.90219 | 5.07438 | 4047 ft | 215 kts | 174° |
| 2026-05-06 14:14 | 45.88761 | 5.07644 | 3756 ft | 206 kts | 179° |
| 2026-05-06 14:14 | 45.87395 | 5.07636 | 3585 ft | 193 kts | 182° |
| 2026-05-06 14:14 | 45.86098 | 5.07691 | 3334 ft | 179 kts | 179° |
| 2026-05-06 14:14 | 45.84903 | 5.07810 | 3114 ft | 167 kts | 177° |
| 2026-05-06 14:15 | 45.83772 | 5.07925 | 2927 ft | 159 kts | 177° |
| 2026-05-06 14:15 | 45.82696 | 5.08043 | 2751 ft | 151 kts | 176° |
| 2026-05-06 14:15 | 45.81657 | 5.08173 | 2456 ft | 147 kts | 176° |
| 2026-05-06 14:15 | 45.80662 | 5.08303 | 2213 ft | 140 kts | 175° |
| 2026-05-06 14:16 | 45.79714 | 5.08425 | 2041 ft | 136 kts | 176° |
| 2026-05-06 14:16 | 45.78769 | 5.08538 | 1878 ft | 135 kts | 175° |
| 2026-05-06 14:16 | 45.77823 | 5.08645 | 1723 ft | 137 kts | 176° |
| 2026-05-06 14:16 | 45.76878 | 5.08758 | 1483 ft | 138 kts | 175° |
| 2026-05-06 14:17 | 45.75923 | 5.08885 | 1303 ft | 137 kts | 175° |
| 2026-05-06 14:17 | 45.74980 | 5.09000 | 1127 ft | 136 kts | 175° |
| 2026-05-06 14:17 | 45.74050 | 5.09111 | 913 ft | 133 kts | 174° |
| 2026-05-06 14:17 | 45.73138 | 5.09234 | 797 ft | 131 kts | 174° |
| 2026-05-06 14:18 | 45.72435 | 5.09321 | 813 ft | 64 kts | 174° |
| 2026-05-06 14:18 | 45.72132 | 5.09304 | 814 ft | 33 kts | 201° |
| 2026-05-06 14:18 | 45.71983 | 5.09149 | 812 ft | 22 kts | 279° |
| 2026-05-06 14:18 | 45.71974 | 5.08950 | 811 ft | 22 kts | 261° |
| 2026-05-06 14:19 | 45.71960 | 5.08724 | 809 ft | 26 kts | 265° |
| 2026-05-06 14:19 | 45.71932 | 5.08494 | 803 ft | 18 kts | 238° |
| 2026-05-06 14:19 | 45.71811 | 5.08475 | 802 ft | 19 kts | 175° |
| 2026-05-06 14:19 | 45.71690 | 5.08463 | 802 ft | 13 kts | 234° |
| 2026-05-06 14:20 | 45.71680 | 5.08354 | 800 ft | 10 kts | 267° |
| 2026-05-06 14:20 | 45.71675 | 5.08254 | 801 ft | 7 kts | 268° |
| 2026-05-06 14:20 | 45.71638 | 5.08223 | 802 ft | 7 kts | 193° |
| 2026-05-06 14:20 | 45.71606 | 5.08211 | 802 ft | 0 kts | 194° |